LFMN Airport Information

Runway Information
Runway 04L Length 8995 ft width 148 ft
Elevation 10 ft Threshold 0 ft Heading 45
Runway 22R Length 8995 ft Width 148 ft
Elevation 10 ft Threshold 575 ft Heading 225
Runway 04R Length 9712 ft width 148 ft
Elevation 10 ft Threshold 0 ft Heading 45
Runway 22L Length 9712 ft Width 148 ft
Elevation 12 ft Threshold 0 ft Heading 225
Airport Frequencies
Type A/D Name NICE APP Frequency 124.175 MHZ
Type ATIS Name NICE ATIS Frequency 129.6 MHZ
Type GND Name NICE GND Frequency 121.775 MHZ
Type TWR Name NICE TWR Frequency 118.7 MHZ
Airport Navaids
Type VOR-DME Name Nice Cote D Azur Frequency 109650 KHZ
Type VOR-DME Name Cagnes Sur Mer Frequency 109200 KHZ
Type NDB Name Nice Frequency 399 KHZ
Type VOR-DME Name Nice Frequency 112400 KHZ
Airport Weather Information & NOTAM
ADDS - METARS form results

(1532 UTC 21 April 2018)
 
METAR text: LFMN 211500Z 17004KT 120V190 9999 FEW040 22/15 Q1018 NOSIG
Conditions at: LFMN (NICE/COTE D'AZUR, FR) observed 1500 UTC 21 April 2018
Temperature: 22.0°C (72°F)
Dewpoint: 15.0°C (59°F) [RH = 65%]
Pressure (altimeter): 30.06 inches Hg (1018.0 mb)
Winds: from the S (170 degrees) at 5 MPH (4 knots; 2.1 m/s)
Visibility: 6 or more miles (10+ km)
Ceiling: at least 12,000 feet AGL
Clouds: few clouds at 4000 feet AGL
Weather: no significant weather observed at this time